Ritchie, South Africa
Current Conditions -  °F | °C
As of 9:00 PM on Friday 21 Nov 2014 (Local Time) from FAUP Reporting Station
NA  
Wind Chill: 77°   Ceiling: NA
Heat Index: 77°   Visibility: NA
Dew Point: 27°   Wind: 5mph
Humidity: 16%   Direction: 210°SSW
Pressure: 29.88"   Gusts: NA
Location:  29.04°S, 24.6°E
Report Text: FAUP 211900Z AUTO 21004KT //// // ////// 25/M03 Q1012
Loading
Personal Weather Stations






























Interactive Weather Map New forecast layout! Learn more

10-Day Weather Forecast

Advertisements
Track Severe Weather on mobile